createdAt,value
2023-03-02T00:00:32.438Z,89.67
2023-03-02T00:05:35.454Z,90.49
2023-03-02T00:10:38.240Z,90.74
2023-03-02T00:15:40.198Z,90.20
2023-03-02T00:20:41.942Z,90.99
2023-03-02T00:25:43.661Z,90.09
2023-03-02T00:30:45.445Z,90.69
2023-03-02T00:35:47.218Z,92.95
2023-03-02T00:40:49.447Z,92.04
2023-03-02T00:45:51.092Z,91.01
2023-03-02T00:50:52.782Z,93.12
2023-03-02T00:55:55.269Z,93.72
2023-03-02T01:00:59.171Z,94.18
2023-03-02T01:06:02.417Z,93.79
2023-03-02T01:11:04.338Z,93.23
2023-03-02T01:16:06.345Z,93.19
2023-03-02T01:21:11.973Z,94.92
2023-03-02T01:26:13.814Z,95.32
2023-03-02T01:31:15.509Z,93.54
2023-03-02T01:36:17.774Z,92.64
2023-03-02T01:47:54.009Z,94.67
2023-03-02T01:52:56.693Z,95.47
2023-03-02T01:58:01.697Z,94.88
2023-03-02T02:03:09.263Z,94.99
2023-03-02T02:08:11.197Z,95.52
2023-03-02T02:13:13.721Z,96.17
2023-03-02T02:18:15.333Z,95.94
2023-03-02T02:23:34.971Z,96.75
2023-03-02T02:28:44.765Z,97.11
2023-03-02T02:33:55.181Z,97.75
2023-03-02T02:38:57.146Z,98.21
2023-03-02T02:43:59.292Z,94.45
2023-03-02T02:49:03.051Z,94.34
2023-03-02T02:54:04.877Z,95.64
2023-03-02T02:59:23.760Z,96.79
2023-03-02T03:04:29.981Z,95.93
2023-03-02T03:09:33.261Z,98.78
2023-03-02T03:14:39.389Z,99.53
2023-03-02T03:19:44.681Z,97.96
2023-03-02T03:24:46.804Z,98.45
2023-03-02T03:29:50.339Z,98.09
2023-03-02T03:34:54.068Z,98.64
2023-03-02T03:40:09.793Z,96.75
2023-03-02T03:45:13.811Z,96.94
2023-03-02T03:50:18.364Z,99.04
2023-03-02T03:55:20.163Z,100.00
2023-03-02T04:00:24.244Z,100.00
2023-03-02T04:05:34.619Z,99.27
2023-03-02T04:10:37.852Z,97.34
2023-03-02T04:15:41.908Z,98.63
2023-03-02T04:20:43.855Z,100.00
2023-03-02T04:25:45.770Z,98.42
2023-03-02T04:30:52.284Z,97.88
2023-03-02T04:35:54.654Z,98.77
2023-03-02T04:40:57.656Z,98.65
2023-03-02T04:45:59.852Z,98.73
2023-03-02T04:51:01.601Z,99.59
2023-03-02T04:56:03.516Z,100.00
2023-03-02T05:01:05.289Z,100.00
2023-03-02T05:06:07.916Z,100.00
2023-03-02T05:11:15.853Z,100.00
2023-03-02T05:16:18.077Z,100.00
2023-03-02T05:21:19.872Z,98.89
2023-03-02T05:26:21.604Z,100.00
2023-03-02T05:31:43.555Z,100.00
2023-03-02T05:36:46.278Z,99.94
2023-03-02T05:41:48.601Z,99.21
2023-03-02T05:46:50.302Z,100.00
2023-03-02T05:51:51.964Z,100.00
2023-03-02T05:56:53.670Z,100.00
2023-03-02T06:01:58.828Z,100.00
2023-03-02T06:07:00.667Z,100.00
2023-03-02T06:12:02.306Z,98.24
2023-03-02T06:17:04.165Z,99.43
2023-03-02T06:22:05.858Z,100.00
2023-03-02T06:27:07.516Z,100.00
2023-03-02T06:32:10.539Z,98.71
2023-03-02T06:37:12.333Z,100.00
2023-03-02T06:42:14.112Z,94.48
2023-03-02T06:47:15.798Z,82.98
2023-03-02T06:52:17.672Z,79.81
2023-03-02T06:57:19.331Z,69.57
2023-03-02T07:02:20.980Z,67.72
2023-03-02T07:07:22.635Z,71.45
2023-03-02T07:12:24.800Z,70.08
2023-03-02T07:17:26.687Z,77.17
2023-03-02T07:22:28.313Z,81.52
2023-03-02T07:27:30.106Z,80.28
2023-03-02T07:32:31.845Z,84.54
2023-03-02T07:37:33.576Z,84.86
2023-03-02T07:42:35.208Z,83.06
2023-03-02T07:47:37.983Z,83.52
2023-03-02T07:52:39.679Z,82.78
2023-03-02T07:57:41.448Z,78.58
2023-03-02T08:02:43.267Z,77.43
2023-03-02T08:07:46.695Z,79.55
2023-03-02T08:12:48.391Z,83.09
2023-03-02T08:17:50.061Z,83.18
2023-03-02T08:22:51.935Z,80.81
2023-03-02T08:27:53.718Z,77.30
2023-03-02T08:32:55.421Z,74.81
2023-03-02T08:37:59.675Z,75.30
2023-03-02T08:43:01.385Z,73.04
2023-03-02T08:48:03.222Z,67.89
2023-03-02T08:53:04.894Z,68.82
2023-03-02T08:58:06.599Z,68.42
2023-03-02T09:03:08.253Z,66.15
2023-03-02T09:08:10.525Z,63.91
2023-03-02T09:13:12.177Z,65.64
2023-03-02T09:18:13.834Z,63.76
2023-03-02T09:23:24.548Z,64.40
2023-03-02T09:28:26.294Z,64.25
2023-03-02T09:33:28.733Z,65.18
2023-03-02T09:38:30.369Z,62.25
2023-03-02T09:43:50.072Z,59.11
2023-03-02T09:49:25.974Z,61.14
2023-03-02T09:54:28.908Z,59.29
2023-03-02T09:59:39.426Z,57.44
2023-03-02T10:04:50.203Z,56.96
2023-03-02T10:09:52.129Z,57.05
2023-03-02T10:15:04.182Z,56.17
2023-03-02T10:20:17.025Z,54.67
2023-03-02T10:25:50.642Z,51.97
2023-03-02T10:31:05.442Z,50.33
2023-03-02T10:36:21.397Z,45.88
2023-03-02T10:41:29.083Z,45.24
2023-03-02T10:46:46.269Z,42.12
2023-03-02T10:51:58.124Z,42.79
2023-03-02T10:57:03.718Z,38.88
2023-03-02T11:02:23.239Z,39.20
2023-03-02T11:07:28.499Z,39.64
2023-03-02T11:12:31.237Z,39.47
2023-03-02T11:17:38.507Z,38.03
2023-03-02T11:23:00.687Z,37.41
2023-03-02T11:28:17.238Z,33.57
2023-03-02T11:33:34.696Z,31.93
2023-03-02T11:38:53.438Z,37.08
2023-03-02T11:43:58.277Z,34.05
2023-03-02T11:49:05.392Z,33.11
2023-03-02T11:54:44.279Z,32.17
2023-03-02T11:59:46.293Z,33.76
2023-03-02T12:04:48.867Z,30.15
2023-03-02T12:10:08.128Z,30.35
2023-03-02T12:15:33.952Z,28.08
2023-03-02T12:20:37.411Z,28.54
2023-03-02T12:25:51.139Z,30.23
2023-03-02T12:31:10.998Z,30.44
2023-03-02T12:36:17.680Z,33.55
2023-03-02T12:41:41.553Z,31.10
2023-03-02T12:46:48.823Z,29.13
2023-03-02T12:51:52.860Z,30.89
2023-03-02T12:57:08.794Z,31.14
2023-03-02T13:02:16.252Z,33.00
2023-03-02T13:07:22.155Z,32.07
2023-03-02T13:12:26.882Z,31.73
2023-03-02T13:17:33.056Z,33.29
2023-03-02T13:22:34.849Z,33.67
2023-03-02T13:27:36.590Z,35.78
2023-03-02T13:32:42.149Z,35.99
2023-03-02T13:37:44.313Z,36.23
2023-03-02T13:42:46.077Z,36.15
2023-03-02T13:47:47.867Z,36.61
2023-03-02T13:52:50.599Z,37.19
2023-03-02T13:57:54.199Z,36.96
2023-03-02T14:02:55.874Z,36.41
2023-03-02T14:07:57.490Z,35.41
2023-03-02T14:13:05.501Z,34.95
2023-03-02T14:18:30.210Z,35.87
2023-03-02T14:23:32.158Z,36.53
2023-03-02T14:28:35.973Z,36.53
2023-03-02T14:33:38.035Z,35.96
2023-03-02T14:38:39.736Z,35.75
2023-03-02T14:43:41.479Z,35.59
2023-03-02T14:48:43.253Z,35.84
2023-03-02T14:53:44.942Z,36.86
2023-03-02T14:58:46.761Z,35.67
2023-03-02T15:03:48.413Z,36.46
2023-03-02T15:08:50.054Z,36.21
2023-03-02T15:13:51.902Z,36.83
2023-03-02T15:18:53.974Z,36.07
2023-03-02T15:23:55.775Z,35.97
2023-03-02T15:28:57.562Z,36.86
2023-03-02T15:33:59.423Z,37.48
2023-03-02T15:39:01.072Z,37.81
2023-03-02T15:44:02.772Z,37.62
2023-03-02T15:49:04.456Z,37.58
2023-03-02T15:54:06.659Z,38.88
2023-03-02T15:59:08.276Z,38.45
2023-03-02T16:04:10.429Z,39.11
2023-03-02T16:09:12.578Z,39.29
2023-03-02T16:14:15.609Z,40.04
2023-03-02T16:19:19.281Z,40.52
2023-03-02T16:24:21.265Z,42.54
2023-03-02T16:29:24.252Z,43.50
2023-03-02T16:34:25.883Z,44.93
2023-03-02T16:39:27.558Z,45.73
2023-03-02T16:44:29.265Z,46.90
2023-03-02T16:49:30.942Z,49.13
2023-03-02T16:54:32.574Z,50.77
2023-03-02T16:59:34.277Z,52.55
2023-03-02T17:04:37.243Z,54.70
2023-03-02T17:09:41.819Z,55.54
2023-03-02T17:14:43.549Z,57.56
2023-03-02T17:19:45.191Z,58.33
2023-03-02T17:24:46.835Z,59.38
2023-03-02T17:29:48.479Z,60.47
2023-03-02T17:34:50.535Z,59.60
2023-03-02T17:39:52.678Z,60.32
2023-03-02T17:44:54.430Z,60.75
2023-03-02T17:49:58.329Z,60.79
2023-03-02T17:54:59.939Z,61.93
2023-03-02T18:00:01.937Z,63.43
2023-03-02T18:05:08.244Z,64.41
2023-03-02T18:10:10.780Z,65.54
2023-03-02T18:15:12.950Z,66.92
2023-03-02T18:20:15.036Z,68.15
2023-03-02T18:25:17.063Z,69.63
2023-03-02T18:30:21.223Z,69.17
2023-03-02T18:35:23.943Z,67.71
2023-03-02T18:40:25.976Z,68.48
2023-03-02T18:45:30.511Z,69.65
2023-03-02T18:50:32.528Z,70.70
2023-03-02T18:55:37.147Z,70.99
2023-03-02T19:00:39.267Z,70.44
2023-03-02T19:05:42.393Z,76.29
2023-03-02T19:10:44.175Z,76.65
2023-03-02T19:15:47.220Z,77.82
2023-03-02T19:20:50.797Z,78.03
2023-03-02T19:25:55.571Z,80.04
2023-03-02T19:30:57.739Z,82.04
2023-03-02T19:35:59.900Z,84.13
2023-03-02T19:41:02.121Z,81.50
2023-03-02T19:46:05.267Z,82.98
2023-03-02T19:51:09.094Z,83.90
2023-03-02T19:56:14.310Z,84.34
2023-03-02T20:01:25.092Z,86.91
2023-03-02T20:06:30.513Z,89.22
2023-03-02T20:11:32.377Z,88.23
2023-03-02T20:16:36.015Z,89.02
2023-03-02T20:21:38.451Z,91.03
2023-03-02T20:26:42.166Z,91.18
2023-03-02T20:31:44.637Z,93.29
2023-03-02T20:36:47.110Z,93.22
2023-03-02T20:41:51.709Z,94.79
2023-03-02T20:46:58.137Z,96.20
2023-03-02T20:52:00.281Z,93.98
2023-03-02T20:57:02.062Z,95.97
2023-03-02T21:02:04.601Z,93.60
2023-03-02T21:07:06.698Z,97.65
2023-03-02T21:12:11.841Z,98.51
2023-03-02T21:17:13.594Z,97.55
2023-03-02T21:22:15.297Z,98.74
2023-03-02T21:27:16.946Z,100.00
2023-03-02T21:32:18.954Z,98.30
2023-03-02T21:37:20.702Z,100.00
2023-03-02T21:42:22.640Z,100.00
2023-03-02T21:47:24.350Z,100.00
2023-03-02T21:52:27.296Z,100.00
2023-03-02T21:57:28.913Z,100.00
2023-03-02T22:02:31.271Z,100.00
2023-03-02T22:07:32.875Z,100.00
2023-03-02T22:12:34.576Z,100.00
2023-03-02T22:17:36.273Z,100.00
2023-03-02T22:22:37.875Z,100.00
2023-03-02T22:27:39.483Z,100.00
2023-03-02T22:32:41.153Z,100.00
2023-03-02T22:37:42.824Z,100.00
2023-03-02T22:42:44.522Z,100.00
2023-03-02T22:47:51.265Z,100.00
2023-03-02T22:52:54.563Z,100.00
2023-03-02T22:57:56.255Z,100.00
2023-03-02T23:02:57.876Z,100.00
2023-03-02T23:08:22.572Z,100.00
2023-03-02T23:13:30.236Z,100.00
2023-03-02T23:18:32.892Z,100.00
2023-03-02T23:23:34.874Z,100.00
2023-03-02T23:28:36.503Z,100.00
2023-03-02T23:33:38.143Z,100.00
2023-03-02T23:38:40.639Z,100.00
2023-03-02T23:43:42.523Z,100.00
2023-03-02T23:48:44.410Z,100.00
2023-03-02T23:53:46.137Z,100.00
2023-03-02T23:58:48.116Z,100.00
